Time;durP1;ratioP1;P1;durP2;ratioP2;P2;SDS_P1;SDS_P2;PMS_P1;PMS_P2;Temp;Humidity;BMP_temperature;BMP_pressure;BME280_temperature;BME280_humidity;BME280_pressure;Samples;Min_cycle;Max_cycle;Signal;HPM_P1;HPM_P2
2022/04/03 00:02:04;;;;;;;18.17;11.80;;;;;;;1.74;100.00;99602.53;5072805;28;20211;-85
2022/04/03 00:04:31;;;;;;;11.88;10.15;;;;;;;1.60;100.00;99602.78;5072705;28;20220;-86
2022/04/03 00:06:59;;;;;;;15.55;11.55;;;;;;;1.66;100.00;99601.81;5072861;28;20189;-85
2022/04/03 00:09:26;;;;;;;13.30;10.80;;;;;;;1.76;100.00;99600.69;5072797;28;20607;-86
2022/04/03 00:11:52;;;;;;;13.18;10.57;;;;;;;1.71;100.00;99607.00;5072634;28;20185;-85
2022/04/03 00:14:20;;;;;;;11.95;10.20;;;;;;;1.74;100.00;99607.84;5072953;28;20544;-84
2022/04/03 00:16:47;;;;;;;16.13;10.77;;;;;;;1.60;100.00;99605.44;5072224;28;20185;-86
2022/04/03 00:19:13;;;;;;;14.02;10.90;;;;;;;1.69;100.00;99609.69;5072409;28;20192;-85
2022/04/03 00:21:40;;;;;;;12.40;10.43;;;;;;;1.56;100.00;99608.22;5072952;28;20205;-85
2022/04/03 00:24:07;;;;;;;14.30;10.60;;;;;;;1.70;100.00;99611.47;5072824;28;20702;-86
2022/04/03 00:26:34;;;;;;;14.85;10.30;;;;;;;1.80;100.00;99599.72;5067026;28;20219;-85
2022/04/03 00:29:00;;;;;;;10.68;9.45;;;;;;;1.69;100.00;99609.69;5072586;28;20193;-85
2022/04/03 00:31:28;;;;;;;13.70;9.65;;;;;;;1.70;100.00;99606.16;5072484;28;20187;-85
2022/04/03 00:33:55;;;;;;;12.05;9.43;;;;;;;1.82;100.00;99600.56;5072694;28;20712;-85
2022/04/03 00:36:22;;;;;;;13.65;10.50;;;;;;;1.83;100.00;99606.72;5072510;28;20211;-84
2022/04/03 00:38:48;;;;;;;15.30;10.32;;;;;;;1.76;100.00;99606.00;5072794;28;20184;-85
2022/04/03 00:41:17;;;;;;;12.05;9.70;;;;;;;1.75;100.00;99603.41;5071917;28;20587;-84
2022/04/03 00:43:45;;;;;;;14.60;10.30;;;;;;;1.76;100.00;99600.69;5070694;28;20189;-84
2022/04/03 00:46:16;;;;;;;11.93;9.30;;;;;;;1.81;100.00;99606.78;5072861;28;20634;-84
2022/04/03 00:48:46;;;;;;;17.23;10.30;;;;;;;1.70;100.00;99599.94;5072236;28;20200;-84
2022/04/03 00:51:13;;;;;;;13.02;9.35;;;;;;;1.83;100.00;99612.94;5072399;28;20187;-84
2022/04/03 00:53:39;;;;;;;11.32;10.07;;;;;;;1.85;99.34;99604.91;5072688;28;20191;-84
2022/04/03 00:56:07;;;;;;;13.10;9.30;;;;;;;1.76;99.46;99603.34;5071917;28;20549;-85
2022/04/03 00:58:34;;;;;;;11.82;9.40;;;;;;;1.77;98.96;99605.09;5072140;28;20312;-85
2022/04/03 01:01:00;;;;;;;10.98;8.68;;;;;;;1.96;97.91;99607.34;5071807;28;20185;-85
2022/04/03 01:03:28;;;;;;;9.88;8.15;;;;;;;1.94;97.23;99607.38;5072300;28;20193;-84
2022/04/03 01:05:56;;;;;;;8.82;7.28;;;;;;;1.90;95.79;99608.38;5071131;28;20192;-85
2022/04/03 01:08:25;;;;;;;12.20;8.55;;;;;;;1.88;95.84;99605.75;5068771;28;20595;-85
2022/04/03 01:10:51;;;;;;;13.55;8.40;;;;;;;2.06;94.90;99609.75;5076095;28;20189;-84
2022/04/03 01:13:18;;;;;;;8.52;7.40;;;;;;;2.18;93.48;99605.94;5075354;28;20593;-84
2022/04/03 01:15:51;;;;;;;10.63;8.43;;;;;;;2.18;92.63;99613.91;5075961;28;20618;-86
2022/04/03 01:18:18;;;;;;;9.80;8.13;;;;;;;2.27;92.30;99607.50;5075777;28;20598;-84
2022/04/03 01:20:44;;;;;;;10.02;8.32;;;;;;;2.21;91.73;99608.50;5075339;28;20320;-84
2022/04/03 01:23:12;;;;;;;9.93;7.60;;;;;;;2.37;91.41;99605.47;5075365;28;20201;-84
2022/04/03 01:25:40;;;;;;;9.18;8.23;;;;;;;2.43;90.41;99600.03;5075385;28;20181;-85
2022/04/03 01:28:08;;;;;;;10.32;7.90;;;;;;;2.49;88.97;99607.84;5075654;28;20945;-84
2022/04/03 01:30:35;;;;;;;10.50;8.27;;;;;;;2.48;88.89;99614.94;5075520;28;20196;-84
2022/04/03 01:33:02;;;;;;;8.57;7.47;;;;;;;2.67;88.45;99607.38;5075203;28;20290;-84
2022/04/03 01:35:28;;;;;;;9.73;7.65;;;;;;;2.69;88.31;99608.22;5075594;28;20215;-84
2022/04/03 01:37:55;;;;;;;11.98;8.00;;;;;;;2.64;88.27;99610.09;5075163;28;20193;-85
2022/04/03 01:40:22;;;;;;;10.68;8.30;;;;;;;2.67;87.98;99607.38;5075244;28;20227;-85
2022/04/03 01:42:51;;;;;;;11.35;7.90;;;;;;;2.53;85.99;99600.66;5074948;28;20199;-85
2022/04/03 01:45:17;;;;;;;8.85;7.38;;;;;;;2.63;86.15;99605.69;5075194;28;20607;-84
2022/04/03 01:47:44;;;;;;;8.95;7.30;;;;;;;2.67;84.46;99607.38;5075317;28;20198;-85
2022/04/03 01:50:10;;;;;;;8.95;6.93;;;;;;;2.75;83.58;99603.63;5074864;28;20189;-85
2022/04/03 01:52:37;;;;;;;8.23;6.68;;;;;;;2.79;84.21;99600.00;5075014;28;20280;-85
2022/04/03 01:55:05;;;;;;;12.00;7.63;;;;;;;2.94;83.18;99602.25;5075370;28;20197;-85
2022/04/03 01:57:32;;;;;;;10.70;7.15;;;;;;;2.96;84.52;99596.88;5075343;28;20216;-85
2022/04/03 02:00:00;;;;;;;11.10;7.80;;;;;;;2.92;84.54;99594.31;5075085;28;20701;-85
2022/04/03 02:02:26;;;;;;;11.38;7.82;;;;;;;2.72;85.41;99605.47;5074053;28;20487;-85
2022/04/03 02:04:53;;;;;;;11.15;8.43;;;;;;;2.73;86.30;99601.00;5074814;28;20623;-85
2022/04/03 02:07:19;;;;;;;8.85;7.60;;;;;;;2.91;84.63;99600.53;5069434;28;20628;-85
2022/04/03 02:09:46;;;;;;;8.90;7.30;;;;;;;2.90;83.86;99604.09;5074908;28;20250;-85
2022/04/03 02:12:13;;;;;;;10.98;7.90;;;;;;;2.96;83.59;99602.19;5074833;28;20273;-85
2022/04/03 02:14:39;;;;;;;11.60;9.32;;;;;;;3.00;83.08;99604.72;5074745;28;20582;-85
2022/04/03 02:17:08;;;;;;;11.00;8.07;;;;;;;2.88;83.92;99611.25;5074648;28;20192;-85
2022/04/03 02:19:34;;;;;;;9.15;8.00;;;;;;;2.78;84.54;99611.53;5074852;28;20628;-85
2022/04/03 02:22:01;;;;;;;8.70;6.95;;;;;;;2.62;84.60;99611.06;5080535;28;20299;-85
2022/04/03 02:24:27;;;;;;;9.95;7.00;;;;;;;2.78;84.93;99611.53;5074458;28;20195;-85
2022/04/03 02:26:54;;;;;;;10.32;8.02;;;;;;;2.84;84.13;99611.38;5074502;28;20534;-85
2022/04/03 02:29:21;;;;;;;13.13;7.63;;;;;;;2.81;82.78;99615.00;5074273;28;20206;-85
2022/04/03 02:31:47;;;;;;;9.23;7.10;;;;;;;2.92;82.42;99617.38;5074110;28;20199;-85
2022/04/03 02:34:15;;;;;;;10.15;7.20;;;;;;;2.75;83.15;99611.63;5072815;28;20279;-85
2022/04/03 02:36:43;;;;;;;10.60;7.60;;;;;;;2.89;82.34;99609.47;5073664;28;20195;-85
2022/04/03 02:39:10;;;;;;;8.02;6.30;;;;;;;3.08;81.04;99612.50;5074089;28;20206;-85
2022/04/03 02:41:37;;;;;;;8.07;6.93;;;;;;;3.03;80.53;99612.63;5073674;28;20189;-86
2022/04/03 02:44:04;;;;;;;8.48;6.93;;;;;;;2.98;81.22;99622.50;5074045;28;20188;-85
2022/04/03 02:46:31;;;;;;;9.27;7.03;;;;;;;2.94;81.52;99618.22;5073799;28;20205;-85
2022/04/03 02:48:58;;;;;;;8.90;7.10;;;;;;;3.07;79.32;99618.72;5074164;28;20192;-85
2022/04/03 02:51:25;;;;;;;7.75;6.68;;;;;;;2.94;78.01;99620.88;5073969;28;20576;-85
2022/04/03 02:53:52;;;;;;;9.13;7.18;;;;;;;2.78;79.08;99625.72;5066115;28;20208;-85
2022/04/03 02:56:19;;;;;;;8.18;7.13;;;;;;;2.75;79.52;99614.28;5073476;28;20193;-85
2022/04/03 02:58:45;;;;;;;8.48;6.75;;;;;;;2.62;80.19;99619.91;5073456;28;20239;-85
2022/04/03 03:01:12;;;;;;;7.72;6.05;;;;;;;2.52;80.17;99620.19;5073985;28;20190;-85
2022/04/03 03:03:39;;;;;;;8.55;6.88;;;;;;;2.73;80.22;99627.59;5073632;28;20219;-85
2022/04/03 03:06:06;;;;;;;8.82;6.45;;;;;;;2.86;79.17;99623.72;5073640;28;20196;-85
2022/04/03 03:08:34;;;;;;;12.55;6.45;;;;;;;2.79;78.00;99626.59;5073269;28;20213;-85
2022/04/03 03:11:00;;;;;;;7.22;6.28;;;;;;;2.59;77.07;99630.59;5073077;28;20194;-85
2022/04/03 03:13:27;;;;;;;6.72;6.03;;;;;;;2.66;76.69;99623.34;5073478;28;20569;-85
2022/04/03 03:15:54;;;;;;;7.25;6.05;;;;;;;2.56;77.43;99620.06;5072765;28;20186;-84
2022/04/03 03:18:21;;;;;;;8.27;7.00;;;;;;;2.66;75.46;99618.91;5073394;28;20197;-85
2022/04/03 03:20:47;;;;;;;7.85;6.53;;;;;;;2.61;75.85;99628.78;5073602;28;20656;-85
2022/04/03 03:23:14;;;;;;;6.90;6.20;;;;;;;2.68;76.02;99626.84;5073064;28;20217;-85
2022/04/03 03:25:43;;;;;;;7.78;6.90;;;;;;;2.83;75.32;99633.56;5072726;28;20619;-85
2022/04/03 03:28:10;;;;;;;7.97;7.15;;;;;;;2.87;75.12;99617.50;5072822;28;20212;-84
2022/04/03 03:30:37;;;;;;;8.38;6.15;;;;;;;2.70;75.81;99625.03;5072860;28;20287;-85
2022/04/03 03:33:04;;;;;;;16.45;7.32;;;;;;;2.41;76.93;99626.63;5073106;28;20185;-85
2022/04/03 03:35:30;;;;;;;13.48;6.53;;;;;;;2.61;76.85;99619.94;5073056;28;20909;-85
2022/04/03 03:37:57;;;;;;;8.18;6.15;;;;;;;2.66;76.22;99632.19;5073403;28;20202;-85
2022/04/03 03:40:23;;;;;;;8.90;6.78;;;;;;;2.44;76.71;99630.97;5073402;28;20203;-84
2022/04/03 03:42:51;;;;;;;6.57;5.68;;;;;;;2.45;77.12;99633.63;5072707;28;20287;-85
2022/04/03 03:45:18;;;;;;;8.10;6.32;;;;;;;2.57;76.21;99629.78;5072712;28;20272;-85
2022/04/03 03:47:45;;;;;;;8.35;6.68;;;;;;;2.63;76.22;99637.59;5072804;28;20198;-85
2022/04/03 03:50:12;;;;;;;6.85;6.15;;;;;;;2.66;75.15;99639.31;5073125;28;20185;-85
2022/04/03 03:52:38;;;;;;;9.48;6.80;;;;;;;2.46;76.09;99637.13;5073181;28;20312;-84
2022/04/03 03:55:06;;;;;;;9.63;6.75;;;;;;;2.40;77.16;99637.31;5072918;28;20207;-85
2022/04/03 03:57:33;;;;;;;9.82;6.50;;;;;;;2.63;76.34;99632.28;5072438;28;20228;-84
2022/04/03 04:00:01;;;;;;;7.72;6.50;;;;;;;2.61;75.38;99642.09;5072213;28;20208;-85
2022/04/03 04:02:28;;;;;;;7.25;6.50;;;;;;;2.70;75.77;99625.91;5072924;28;20202;-85
2022/04/03 04:04:54;;;;;;;7.97;6.82;;;;;;;2.78;75.04;99646.09;5072899;28;20188;-85
2022/04/03 04:07:21;;;;;;;8.35;6.45;;;;;;;2.61;75.41;99641.22;5073072;28;20197;-85
2022/04/03 04:09:48;;;;;;;8.70;6.53;;;;;;;2.53;75.49;99646.69;5072822;28;20215;-85
2022/04/03 04:12:14;;;;;;;11.02;7.38;;;;;;;2.37;77.00;99640.88;5072878;28;20186;-85
2022/04/03 04:14:41;;;;;;;8.13;6.85;;;;;;;2.26;77.08;99638.50;5072974;28;20523;-85
2022/04/03 04:17:09;;;;;;;9.57;6.80;;;;;;;2.34;77.67;99650.75;5072875;28;20239;-85
2022/04/03 04:19:36;;;;;;;8.52;7.05;;;;;;;2.24;77.65;99647.44;5072588;28;20185;-85
2022/04/03 04:22:03;;;;;;;9.23;6.93;;;;;;;2.58;76.68;99651.91;5072370;28;20204;-84
2022/04/03 04:24:30;;;;;;;7.47;6.75;;;;;;;2.62;75.77;99649.16;5072963;28;20641;-85
2022/04/03 04:26:58;;;;;;;8.73;6.70;;;;;;;2.87;75.40;99652.06;5072505;28;20202;-85
2022/04/03 04:29:24;;;;;;;9.38;7.32;;;;;;;3.07;72.90;99653.31;5072956;28;20187;-85
2022/04/03 04:31:51;;;;;;;8.70;7.10;;;;;;;3.05;72.47;99661.34;5073112;28;20675;-85
2022/04/03 04:34:19;;;;;;;8.55;6.68;;;;;;;3.25;71.24;99655.47;5071374;28;20285;-85
2022/04/03 04:36:45;;;;;;;6.60;5.85;;;;;;;3.14;71.13;99660.22;5072691;28;20205;-84
2022/04/03 04:39:12;;;;;;;6.85;6.05;;;;;;;3.05;71.52;99650.72;5072713;28;20254;-84
2022/04/03 04:41:40;;;;;;;8.00;7.10;;;;;;;3.08;71.21;99658.59;5075242;28;20956;-85
2022/04/03 04:44:07;;;;;;;7.25;6.18;;;;;;;2.74;73.22;99663.94;5076122;28;20227;-85
2022/04/03 04:46:34;;;;;;;6.63;5.93;;;;;;;2.63;74.39;99666.84;5076457;28;20609;-85
2022/04/03 04:49:00;;;;;;;6.70;5.82;;;;;;;2.99;72.53;99661.50;5076122;28;20196;-85
2022/04/03 04:51:28;;;;;;;9.48;6.85;;;;;;;3.01;72.63;99673.00;5076854;28;20180;-85
2022/04/03 04:53:55;;;;;;;8.02;6.93;;;;;;;2.91;72.75;99666.16;5075839;28;20189;-84
2022/04/03 04:56:21;;;;;;;11.07;8.27;;;;;;;2.71;73.51;99667.53;5075211;28;20188;-85
2022/04/03 04:58:48;;;;;;;9.25;6.75;;;;;;;2.66;73.66;99672.06;5075889;28;20915;-84
2022/04/03 05:01:15;;;;;;;9.65;7.38;;;;;;;2.71;73.42;99677.28;5075997;28;20206;-86
2022/04/03 05:03:42;;;;;;;7.60;6.70;;;;;;;2.57;74.19;99674.09;5075890;28;20205;-85
2022/04/03 05:06:12;;;;;;;7.65;6.85;;;;;;;2.60;74.31;99674.00;5075251;28;20263;-84
2022/04/03 05:08:40;;;;;;;7.45;6.68;;;;;;;2.77;73.33;99674.47;5075068;28;20213;-84
2022/04/03 05:11:07;;;;;;;8.95;7.63;;;;;;;2.60;74.45;99690.88;5075307;28;20193;-85
2022/04/03 05:13:34;;;;;;;8.20;6.70;;;;;;;2.57;75.73;99682.94;5075518;28;20316;-84
2022/04/03 05:16:01;;;;;;;8.77;7.13;;;;;;;2.76;74.24;99680.72;5075527;28;20207;-84
2022/04/03 05:18:27;;;;;;;13.85;9.55;;;;;;;2.70;74.61;99687.06;5075941;28;20548;-84
2022/04/03 05:20:54;;;;;;;9.20;7.38;;;;;;;2.72;75.15;99689.69;5075405;28;20193;-84
2022/04/03 05:23:20;;;;;;;8.32;7.13;;;;;;;2.66;75.35;99689.81;5084269;28;20670;-85
2022/04/03 05:25:48;;;;;;;8.88;7.50;;;;;;;2.75;74.42;99686.06;5077884;28;20635;-85
2022/04/03 05:28:15;;;;;;;9.88;6.78;;;;;;;2.68;74.68;99686.22;5075900;28;20636;-84
2022/04/03 05:30:42;;;;;;;7.63;6.82;;;;;;;2.48;75.73;99697.31;5075386;28;20292;-85
2022/04/03 05:33:08;;;;;;;8.02;7.22;;;;;;;2.69;75.71;99697.72;5075884;28;20203;-85
2022/04/03 05:35:35;;;;;;;8.82;7.68;;;;;;;2.94;73.53;99698.00;5075312;28;20219;-85
2022/04/03 05:38:01;;;;;;;10.63;7.50;;;;;;;2.93;73.77;99701.56;5074951;28;20194;-85
2022/04/03 05:40:28;;;;;;;10.48;8.10;;;;;;;2.76;74.93;99704.66;5075991;28;20274;-86
2022/04/03 05:42:56;;;;;;;10.57;7.72;;;;;;;3.02;73.94;99709.31;5072178;28;20226;-85
2022/04/03 05:45:23;;;;;;;10.43;7.85;;;;;;;3.02;73.29;99711.09;5075787;28;20295;-85
2022/04/03 05:47:49;;;;;;;10.88;8.32;;;;;;;2.92;74.05;99708.66;5074846;28;20293;-85
2022/04/03 05:50:16;;;;;;;9.27;8.10;;;;;;;2.74;75.26;99702.91;5074565;28;20197;-85
2022/04/03 05:52:44;;;;;;;9.43;8.43;;;;;;;2.60;76.46;99706.81;5083288;28;20825;-86
2022/04/03 05:55:12;;;;;;;11.50;10.30;;;;;;;2.67;76.50;99713.72;5075674;28;20513;-85
2022/04/03 05:57:39;;;;;;;12.93;8.55;;;;;;;2.56;77.20;99710.44;5076215;28;20236;-84
2022/04/03 06:00:12;;;;;;;10.45;8.25;;;;;;;2.34;78.45;99719.81;5076601;28;20193;-82
2022/04/03 06:02:43;;;;;;;9.88;7.60;;;;;;;2.19;79.22;99721.03;5055495;28;20236;-83
2022/04/03 06:05:10;;;;;;;10.10;7.63;;;;;;;2.14;80.29;99729.09;5050682;28;20275;-86
2022/04/03 06:07:37;;;;;;;9.88;8.20;;;;;;;2.57;77.37;99721.94;5054221;28;20267;-86
2022/04/03 06:10:04;;;;;;;8.82;7.82;;;;;;;2.61;76.82;99728.94;5055847;28;20290;-87
2022/04/03 06:12:31;;;;;;;9.68;8.02;;;;;;;2.47;77.57;99723.97;5055340;28;20276;-86
2022/04/03 06:14:57;;;;;;;11.70;8.57;;;;;;;2.32;78.85;99732.28;5055688;28;20288;-86
2022/04/03 06:17:25;;;;;;;10.60;8.05;;;;;;;2.34;81.10;99733.97;5053068;28;20216;-81
2022/04/03 06:19:52;;;;;;;8.90;8.00;;;;;;;2.39;80.89;99739.19;5051013;28;20203;-82
2022/04/03 06:22:19;;;;;;;9.20;7.20;;;;;;;2.32;78.61;99738.44;5052318;28;20186;-81
2022/04/03 06:24:45;;;;;;;8.90;7.72;;;;;;;2.50;78.61;99742.47;5052918;28;20215;-80
2022/04/03 06:27:15;;;;;;;11.88;8.77;;;;;;;2.43;77.94;99740.88;5052235;28;20186;-81
2022/04/03 06:29:42;;;;;;;8.68;7.78;;;;;;;2.30;78.34;99746.44;5052213;28;20217;-80
2022/04/03 06:32:09;;;;;;;9.48;8.00;;;;;;;2.25;77.69;99740.38;5053176;28;20644;-82
2022/04/03 06:34:37;;;;;;;9.52;8.43;;;;;;;2.23;78.18;99750.16;5052518;28;20193;-81
2022/04/03 06:37:04;;;;;;;10.18;7.60;;;;;;;2.59;75.46;99750.25;5052336;28;20709;-82
2022/04/03 06:39:31;;;;;;;10.23;8.40;;;;;;;2.54;76.04;99746.81;5052724;28;20280;-82
2022/04/03 06:41:58;;;;;;;10.40;7.32;;;;;;;2.45;75.84;99761.19;5053785;28;20197;-81
2022/04/03 06:44:25;;;;;;;12.00;8.13;;;;;;;2.75;73.98;99757.88;5053603;28;20653;-81
2022/04/03 06:46:51;;;;;;;9.50;7.82;;;;;;;2.66;75.75;99758.94;5052421;28;20193;-81
2022/04/03 06:49:18;;;;;;;9.98;8.60;;;;;;;2.81;73.78;99760.38;5052409;28;20691;-82
2022/04/03 06:51:46;;;;;;;10.30;7.43;;;;;;;2.75;74.10;99757.88;5052393;28;20204;-81
2022/04/03 06:54:12;;;;;;;9.65;7.45;;;;;;;2.70;73.50;99769.47;5052060;28;20193;-82
2022/04/03 06:56:39;;;;;;;9.27;7.35;;;;;;;2.69;73.12;99769.50;5052281;28;20194;-81
2022/04/03 06:59:06;;;;;;;10.10;7.78;;;;;;;2.68;72.81;99773.09;5051685;28;20229;-83
2022/04/03 07:01:32;;;;;;;11.00;7.60;;;;;;;2.87;73.38;99770.84;5051879;28;20202;-82
2022/04/03 07:03:59;;;;;;;8.32;7.40;;;;;;;2.84;72.49;99773.59;5051189;28;20198;-82
2022/04/03 07:06:25;;;;;;;7.43;6.68;;;;;;;3.01;71.53;99775.84;5051765;28;20211;-81
2022/04/03 07:08:53;;;;;;;12.40;7.10;;;;;;;2.84;69.84;99773.59;5051759;28;20190;-82
2022/04/03 07:11:20;;;;;;;11.27;6.50;;;;;;;2.90;69.14;99766.34;5050219;28;20194;-81
2022/04/03 07:13:46;;;;;;;7.65;6.15;;;;;;;3.06;68.37;99777.50;5051805;28;20189;-82
2022/04/03 07:16:13;;;;;;;11.25;7.70;;;;;;;3.15;67.33;99775.53;5051316;28;20186;-82
2022/04/03 07:18:39;;;;;;;7.28;6.28;;;;;;;3.31;65.90;99779.53;5051660;28;20193;-82
2022/04/03 07:21:06;;;;;;;9.30;7.18;;;;;;;3.16;66.77;99782.59;5051611;28;20205;-82
2022/04/03 07:23:33;;;;;;;7.72;6.10;;;;;;;3.01;66.34;99786.47;5050977;28;20202;-81
2022/04/03 07:26:00;;;;;;;8.27;5.72;;;;;;;3.12;65.71;99780.00;5052229;28;20219;-82
2022/04/03 07:28:27;;;;;;;6.35;5.60;;;;;;;3.21;65.03;99781.56;5051532;28;20201;-81
2022/04/03 07:30:54;;;;;;;6.70;6.00;;;;;;;3.38;64.31;99782.91;5051882;28;20611;-81
2022/04/03 07:33:21;;;;;;;8.35;6.22;;;;;;;3.08;65.64;99791.63;5050632;28;20206;-82
2022/04/03 07:35:47;;;;;;;8.93;6.55;;;;;;;3.15;64.40;99788.81;5051633;28;20182;-82
2022/04/03 07:38:14;;;;;;;7.60;6.10;;;;;;;3.34;63.78;99790.09;5051403;28;20551;-82
2022/04/03 07:40:41;;;;;;;8.05;6.20;;;;;;;3.64;63.56;99785.78;5051224;28;20187;-82
2022/04/03 07:43:09;;;;;;;10.75;6.25;;;;;;;3.74;62.49;99789.06;5049819;28;20208;-82
2022/04/03 07:45:36;;;;;;;8.73;6.30;;;;;;;3.73;62.40;99787.28;5051684;28;20639;-82
2022/04/03 07:48:02;;;;;;;8.23;6.43;;;;;;;3.79;61.41;99791.59;5051524;28;20671;-82
2022/04/03 07:50:29;;;;;;;8.23;6.20;;;;;;;3.83;61.27;99798.59;5051768;28;20277;-82
2022/04/03 07:52:55;;;;;;;6.75;5.82;;;;;;;3.94;60.63;99805.38;5050662;28;20211;-82
2022/04/03 07:55:22;;;;;;;9.57;5.85;;;;;;;4.05;60.17;99806.84;5050873;28;20191;-82
2022/04/03 07:57:48;;;;;;;8.57;6.35;;;;;;;4.22;59.79;99804.56;5050051;28;20225;-82
2022/04/03 08:00:17;;;;;;;7.38;5.70;;;;;;;4.10;59.27;99802.28;5047018;28;20192;-81
2022/04/03 08:02:44;;;;;;;6.43;5.60;;;;;;;4.13;60.10;99813.69;5052190;28;20195;-81
2022/04/03 08:05:11;;;;;;;6.72;5.93;;;;;;;4.30;59.34;99813.25;5052400;28;20218;-82
2022/04/03 08:07:38;;;;;;;7.00;5.95;;;;;;;4.56;61.95;99817.78;5052492;28;20211;-82
2022/04/03 08:10:09;;;;;;;6.90;6.20;;;;;;;4.69;57.98;99815.63;5051475;28;20188;-81
2022/04/03 08:12:36;;;;;;;7.75;5.75;;;;;;;4.82;57.49;99810.78;5051767;28;20183;-82
2022/04/03 08:15:04;;;;;;;9.70;6.55;;;;;;;4.73;57.96;99811.94;5053990;28;20290;-82
2022/04/03 08:17:32;;;;;;;8.93;5.80;;;;;;;4.84;56.68;99816.06;5056386;28;20566;-82
2022/04/03 08:19:59;;;;;;;6.45;5.65;;;;;;;4.93;55.81;99823.78;5056251;28;20236;-82
2022/04/03 08:22:25;;;;;;;8.02;6.00;;;;;;;4.57;55.02;99834.69;5055474;28;20184;-81
2022/04/03 08:24:52;;;;;;;6.43;5.82;;;;;;;4.62;55.82;99835.41;5055604;28;20570;-82
2022/04/03 08:27:19;;;;;;;7.43;5.85;;;;;;;4.79;57.77;99829.53;5055474;28;20197;-82
2022/04/03 08:29:45;;;;;;;7.32;5.38;;;;;;;5.56;56.95;99832.41;5055346;28;20545;-82
2022/04/03 08:32:12;;;;;;;7.90;5.30;;;;;;;5.31;53.77;99827.00;5055413;28;20256;-82
2022/04/03 08:34:41;;;;;;;8.48;6.10;;;;;;;5.31;53.09;99835.88;5055903;28;20204;-82
2022/04/03 08:37:08;;;;;;;6.25;5.40;;;;;;;5.25;52.44;99832.56;5055763;28;20565;-81
2022/04/03 08:39:35;;;;;;;9.98;5.82;;;;;;;5.78;52.73;99827.22;5055354;28;20555;-83
2022/04/03 08:42:01;;;;;;;6.40;5.03;;;;;;;5.63;50.68;99837.50;5055434;28;20650;-82
2022/04/03 08:44:28;;;;;;;6.78;6.07;;;;;;;5.94;50.04;99833.78;5055280;28;20312;-82
2022/04/03 08:46:59;;;;;;;6.82;5.70;;;;;;;5.24;49.57;99837.03;5055669;28;20198;-82
2022/04/03 08:49:28;;;;;;;6.88;4.82;;;;;;;5.22;56.23;99842.44;5054205;28;20266;-82
2022/04/03 08:51:56;;;;;;;11.88;5.38;;;;;;;5.47;52.92;99840.72;5055541;28;20212;-82
2022/04/03 08:54:23;;;;;;;6.13;5.30;;;;;;;5.36;51.33;99841.97;5055093;28;20251;-82
2022/04/03 08:56:50;;;;;;;6.60;5.00;;;;;;;5.16;48.34;99845.28;5054908;28;20193;-80
2022/04/03 08:59:16;;;;;;;4.50;4.07;;;;;;;5.23;46.18;99841.50;5055141;28;20619;-82
2022/04/03 09:01:43;;;;;;;6.63;5.00;;;;;;;5.16;45.06;99847.97;5055126;28;20194;-82
2022/04/03 09:04:09;;;;;;;4.80;4.30;;;;;;;5.61;44.34;99852.72;5054211;28;20224;-82
2022/04/03 09:06:53;;;;;;;10.13;4.40;;;;;;;5.46;44.72;99849.69;5052361;28;20196;-81
2022/04/03 09:09:23;;;;;;;5.78;4.30;;;;;;;6.11;49.60;99845.69;5054561;28;20192;-81
2022/04/03 09:12:08;;;;;;;5.43;4.30;;;;;;;6.61;43.86;99842.97;5035761;28;20216;-82
2022/04/03 09:14:35;;;;;;;16.85;5.10;;;;;;;6.80;42.11;99849.31;5053782;28;20213;-82
2022/04/03 09:17:02;;;;;;;7.18;4.40;;;;;;;6.46;43.09;99853.28;5054570;28;20530;-82
2022/04/03 09:19:33;;;;;;;8.13;6.43;;;;;;;5.95;43.69;99856.94;5054860;28;20186;-82
2022/04/03 09:22:00;;;;;;;5.35;4.40;;;;;;;5.93;42.08;99858.75;5054436;28;20196;-83
2022/04/03 09:24:28;;;;;;;5.00;3.63;;;;;;;5.50;41.07;99862.00;5054480;28;20214;-82
2022/04/03 09:26:59;;;;;;;4.00;3.60;;;;;;;5.60;40.38;99864.31;5053973;28;20695;-82
2022/04/03 09:29:25;;;;;;;6.45;3.55;;;;;;;5.56;41.08;99865.34;5054781;28;20194;-82
2022/04/03 09:31:59;;;;;;;5.18;3.70;;;;;;;5.62;41.76;99865.13;5054464;28;20210;-83
2022/04/03 09:34:27;;;;;;;6.55;5.15;;;;;;;5.61;42.08;99871.41;5054710;28;20245;-83
2022/04/03 09:36:58;;;;;;;4.30;3.90;;;;;;;5.83;41.19;99868.91;5054023;28;20182;-82
2022/04/03 09:39:26;;;;;;;4.95;4.10;;;;;;;5.94;40.03;99864.97;5054470;28;20209;-82
2022/04/03 09:42:04;;;;;;;3.85;3.45;;;;;;;5.70;40.40;99869.34;5054022;28;20201;-83
2022/04/03 09:44:33;;;;;;;3.83;3.47;;;;;;;6.01;40.44;99867.38;5054194;28;20555;-83
2022/04/03 09:47:21;;;;;;;3.88;3.47;;;;;;;6.12;38.36;99871.50;5053978;28;20182;-82
2022/04/03 09:49:55;;;;;;;3.70;3.35;;;;;;;6.01;37.87;99878.06;5053868;28;20197;-81
2022/04/03 09:52:36;;;;;;;3.88;3.55;;;;;;;6.27;38.57;99873.63;5053793;28;20544;-82
2022/04/03 09:55:08;;;;;;;5.22;3.53;;;;;;;6.77;36.40;99868.19;5053315;28;20291;-82
2022/04/03 09:57:36;;;;;;;7.70;4.57;;;;;;;7.17;35.33;99877.34;5053165;28;20236;-81
2022/04/03 10:00:04;;;;;;;4.40;3.90;;;;;;;6.67;36.18;99872.13;5054173;28;20670;-80
2022/04/03 10:02:30;;;;;;;6.00;3.50;;;;;;;6.17;37.15;99873.09;5053473;28;20185;-83
2022/04/03 10:04:58;;;;;;;4.13;3.55;;;;;;;6.31;36.64;99875.28;5052948;28;20217;-82
2022/04/03 10:07:25;;;;;;;5.03;3.20;;;;;;;6.33;36.54;99880.53;5053270;28;20196;-82
2022/04/03 10:09:53;;;;;;;4.03;3.63;;;;;;;6.49;37.22;99879.06;5053603;28;20190;-82
2022/04/03 10:12:21;;;;;;;4.45;3.80;;;;;;;6.23;36.41;99875.53;5053202;28;20202;-82
2022/04/03 10:14:50;;;;;;;3.30;3.00;;;;;;;6.71;35.11;99868.41;5054118;28;20663;-86
2022/04/03 10:17:19;;;;;;;4.28;3.40;;;;;;;6.80;34.85;99870.75;5042542;28;20316;-85
2022/04/03 10:19:46;;;;;;;5.22;4.20;;;;;;;6.83;34.40;99865.28;5052489;28;20280;-85
2022/04/03 10:22:17;;;;;;;4.88;3.70;;;;;;;6.57;34.51;99865.41;5055205;28;20715;-84
2022/04/03 10:24:46;;;;;;;3.15;2.83;;;;;;;6.33;34.73;99867.16;5054301;28;20197;-85
2022/04/03 10:27:19;;;;;;;3.88;3.20;;;;;;;6.38;34.72;99862.53;5054388;28;20188;-85
2022/04/03 10:29:49;;;;;;;4.57;3.35;;;;;;;6.41;34.99;99862.41;5054649;28;20189;-85
2022/04/03 10:32:24;;;;;;;3.50;2.80;;;;;;;7.01;33.76;99866.38;5054569;28;20196;-85
2022/04/03 10:34:55;;;;;;;4.35;3.20;;;;;;;6.96;33.30;99863.00;5039351;28;20189;-85
2022/04/03 10:37:33;;;;;;;5.18;3.08;;;;;;;7.01;33.17;99852.09;5053402;28;20190;-85
2022/04/03 10:40:08;;;;;;;3.17;2.90;;;;;;;6.70;33.48;99850.63;5054258;28;20189;-85
2022/04/03 10:42:49;;;;;;;2.78;2.58;;;;;;;6.70;33.31;99852.44;5054282;28;20543;-85
2022/04/03 10:45:28;;;;;;;5.85;2.83;;;;;;;6.44;33.81;99846.25;5053182;28;20209;-85
2022/04/03 10:48:26;;;;;;;2.67;2.33;;;;;;;6.43;34.18;99845.38;5054209;28;20211;-86
2022/04/03 10:51:01;;;;;;;3.00;2.70;;;;;;;6.33;35.10;99844.00;5022458;28;20669;-85
2022/04/03 10:53:30;;;;;;;4.35;3.78;;;;;;;6.09;35.95;99848.41;5074080;28;20270;-85
2022/04/03 10:55:58;;;;;;;3.80;3.00;;;;;;;6.49;35.13;99849.66;5073974;28;20202;-85
2022/04/03 10:58:38;;;;;;;8.95;6.00;;;;;;;6.11;36.01;99845.69;5073941;28;20235;-85
2022/04/03 11:01:06;;;;;;;3.30;3.00;;;;;;;5.84;35.11;99849.25;5074291;28;20619;-85
2022/04/03 11:03:35;;;;;;;5.32;3.70;;;;;;;5.76;35.65;99848.63;5073956;28;20206;-85
2022/04/03 11:06:25;;;;;;;16.98;8.60;;;;;;;5.84;36.61;99853.72;5074067;28;20235;-85
2022/04/03 11:08:58;;;;;;;15.68;10.57;;;;;;;5.95;36.51;99848.91;5074006;28;20649;-85
2022/04/03 11:11:51;;;;;;;18.40;10.00;;;;;;;6.11;36.22;99838.53;5033991;28;20529;-84
2022/04/03 11:14:55;;;;;;;15.38;7.93;;;;;;;6.62;35.17;99837.53;5033946;28;20291;-84
2022/04/03 11:17:51;;;;;;;11.40;6.95;;;;;;;7.50;33.70;99826.00;5034221;28;20600;-85
2022/04/03 11:20:42;;;;;;;17.90;9.70;;;;;;;7.88;33.93;99829.72;5039934;28;20627;-85
2022/04/03 11:23:14;;;;;;;19.60;12.15;;;;;;;7.86;34.17;99838.78;5053252;28;20196;-85
2022/04/03 11:25:41;;;;;;;14.55;8.60;;;;;;;8.10;33.12;99835.03;5052485;28;20212;-85
2022/04/03 11:28:08;;;;;;;28.45;15.45;;;;;;;8.49;33.03;99831.53;5053326;28;20588;-85
2022/04/03 11:30:35;;;;;;;28.83;16.35;;;;;;;7.80;33.22;99820.28;5053581;28;20197;-85
2022/04/03 11:33:04;;;;;;;14.45;9.00;;;;;;;7.87;33.65;99824.47;5053672;28;20195;-85
2022/04/03 11:35:37;;;;;;;28.48;15.52;;;;;;;7.77;33.91;99826.63;5053209;28;20178;-86
2022/04/03 11:38:04;;;;;;;4.80;4.10;;;;;;;8.20;32.10;99816.72;5053748;28;20186;-85
2022/04/03 11:40:31;;;;;;;6.13;4.38;;;;;;;8.01;32.25;99816.66;5053306;28;20276;-85
2022/04/03 11:43:13;;;;;;;11.48;6.65;;;;;;;7.66;33.22;99813.69;5053504;28;20243;-85